Time;durP1;ratioP1;P1;durP2;ratioP2;P2;SDS_P1;SDS_P2;PMS_P1;PMS_P2;Temp;Humidity;BMP_temperature;BMP_pressure;BME280_temperature;BME280_humidity;BME280_pressure;Samples;Min_cycle;Max_cycle;Signal;HPM_P1;HPM_P2
2024/02/03 00:00:00;;;;;;;1.20;1.00;;;;;;;-4.24;67.59;97484.16;5114305;28;20051;-65
2024/02/03 00:02:25;;;;;;;3.90;1.50;;;;;;;-4.30;68.09;97481.53;5096205;28;20521;-65
2024/02/03 00:04:51;;;;;;;2.40;1.40;;;;;;;-4.36;68.43;97475.31;5114192;28;20067;-65
2024/02/03 00:07:17;;;;;;;2.65;1.45;;;;;;;-4.36;68.64;97470.16;5112942;28;20050;-65
2024/02/03 00:09:43;;;;;;;6.25;1.67;;;;;;;-4.45;68.30;97466.13;5114396;28;20036;-65
2024/02/03 00:12:09;;;;;;;1.40;1.25;;;;;;;-4.45;68.14;97468.69;5113853;28;20040;-65
2024/02/03 00:14:35;;;;;;;4.18;1.42;;;;;;;-4.50;68.45;97468.47;5114007;28;20527;-65
2024/02/03 00:17:02;;;;;;;6.18;1.80;;;;;;;-4.53;68.59;97461.06;5114081;28;20048;-64
2024/02/03 00:19:28;;;;;;;3.70;1.40;;;;;;;-4.56;69.22;97462.25;5092349;28;20031;-64
2024/02/03 00:21:54;;;;;;;6.95;1.52;;;;;;;-4.53;69.08;97467.03;5093607;28;20043;-65
2024/02/03 00:24:19;;;;;;;4.43;1.65;;;;;;;-4.55;68.79;97463.06;5093334;28;20036;-64
2024/02/03 00:26:45;;;;;;;5.75;1.50;;;;;;;-4.51;69.34;97479.81;5093386;28;20089;-64
2024/02/03 00:29:12;;;;;;;4.78;1.50;;;;;;;-4.53;68.97;97479.19;5093392;28;20040;-65
2024/02/03 00:31:37;;;;;;;2.00;1.30;;;;;;;-4.59;69.13;97478.97;5075152;28;20109;-64
2024/02/03 00:34:03;;;;;;;2.90;1.45;;;;;;;-4.63;69.30;97482.09;5093215;28;20501;-65
2024/02/03 00:36:29;;;;;;;4.30;1.67;;;;;;;-4.65;69.93;97476.31;5091800;28;20094;-65
2024/02/03 00:38:55;;;;;;;3.00;1.30;;;;;;;-4.65;70.18;97471.94;5093375;28;20036;-65
2024/02/03 00:41:20;;;;;;;3.10;1.40;;;;;;;-4.70;69.96;97478.69;5093281;28;20051;-65
2024/02/03 00:43:46;;;;;;;3.20;1.40;;;;;;;-4.69;69.92;97472.50;5091640;28;20043;-64
2024/02/03 00:46:12;;;;;;;3.55;1.38;;;;;;;-4.73;70.14;97481.63;5093238;28;20046;-64
2024/02/03 00:48:38;;;;;;;3.13;1.50;;;;;;;-4.76;69.98;97464.72;5091896;28;20075;-65
2024/02/03 00:51:09;;;;;;;3.55;1.50;;;;;;;-4.77;69.88;97464.88;5092851;28;20089;-66
2024/02/03 00:53:39;;;;;;;4.28;1.20;;;;;;;-4.80;70.28;97461.69;5093089;28;20123;-64
2024/02/03 00:56:05;;;;;;;2.67;1.27;;;;;;;-4.85;71.01;97456.28;5093080;28;20055;-65
2024/02/03 00:58:31;;;;;;;2.72;1.65;;;;;;;-4.86;70.36;97462.41;5092613;28;20048;-64
2024/02/03 01:00:56;;;;;;;3.38;1.50;;;;;;;-4.94;70.36;97454.81;5090801;28;20047;-64
2024/02/03 01:03:24;;;;;;;6.25;1.58;;;;;;;-4.94;70.89;97454.00;5092579;28;20044;-64
2024/02/03 01:05:51;;;;;;;4.15;1.15;;;;;;;-4.95;70.72;97462.75;5092925;28;20526;-64
2024/02/03 01:08:17;;;;;;;2.60;1.50;;;;;;;-4.99;70.69;97446.03;5092459;28;20131;-64
2024/02/03 01:10:43;;;;;;;1.95;1.25;;;;;;;-5.03;70.83;97451.56;5091557;28;20078;-65
2024/02/03 01:13:09;;;;;;;6.40;1.58;;;;;;;-5.10;71.62;97440.34;5092392;28;20069;-65
2024/02/03 01:15:35;;;;;;;4.45;1.65;;;;;;;-5.07;71.39;97450.31;5091206;28;20039;-65
2024/02/03 01:18:03;;;;;;;6.15;1.77;;;;;;;-5.09;71.75;97439.41;5100033;28;20048;-64
2024/02/03 01:20:29;;;;;;;3.13;1.52;;;;;;;-5.12;71.49;97447.47;5112866;28;20408;-65
2024/02/03 01:22:55;;;;;;;5.50;1.50;;;;;;;-5.17;71.79;97443.88;5112967;28;20058;-65
2024/02/03 01:25:24;;;;;;;2.63;1.30;;;;;;;-5.18;72.04;97442.25;5112917;28;20031;-65
2024/02/03 01:27:51;;;;;;;6.30;1.60;;;;;;;-5.21;72.79;97445.22;5111222;28;20085;-64
2024/02/03 01:30:17;;;;;;;8.93;1.45;;;;;;;-5.23;72.31;97447.22;5111256;28;20039;-64
2024/02/03 01:32:43;;;;;;;2.58;1.30;;;;;;;-5.27;72.83;97441.59;5112784;28;20042;-65
2024/02/03 01:35:09;;;;;;;1.90;1.27;;;;;;;-5.26;72.92;97440.63;5111154;28;20106;-66
2024/02/03 01:37:35;;;;;;;3.45;1.80;;;;;;;-5.28;72.62;97433.03;5112497;28;20055;-65
2024/02/03 01:40:02;;;;;;;2.45;1.50;;;;;;;-5.31;72.72;97443.75;5112473;28;20031;-65
2024/02/03 01:42:30;;;;;;;5.13;1.45;;;;;;;-5.33;73.24;97429.41;5111089;28;20039;-65
2024/02/03 01:44:55;;;;;;;2.88;1.33;;;;;;;-5.37;73.40;97423.81;5112224;28;20039;-64
2024/02/03 01:47:21;;;;;;;2.30;1.27;;;;;;;-5.34;73.74;97425.25;5111052;28;20062;-64
2024/02/03 01:49:48;;;;;;;3.08;1.23;;;;;;;-5.42;73.74;97423.56;5110991;28;20040;-64
2024/02/03 01:52:15;;;;;;;1.88;1.25;;;;;;;-5.42;73.74;97420.97;5110985;28;20039;-64
2024/02/03 01:54:44;;;;;;;1.65;1.40;;;;;;;-5.42;73.82;97413.22;5112400;28;20063;-65
2024/02/03 01:57:10;;;;;;;3.63;1.55;;;;;;;-5.42;74.06;97413.22;5112131;28;20051;-64
2024/02/03 01:59:36;;;;;;;3.58;1.50;;;;;;;-5.48;74.15;97408.81;5112079;28;20420;-65
2024/02/03 02:02:02;;;;;;;5.82;1.45;;;;;;;-5.50;74.19;97409.00;5110876;28;20040;-65
2024/02/03 02:04:29;;;;;;;6.25;1.75;;;;;;;-5.57;74.18;97402.16;5110671;28;20122;-65
2024/02/03 02:06:55;;;;;;;4.72;1.30;;;;;;;-5.58;74.32;97406.53;5112165;28;20050;-64
2024/02/03 02:09:26;;;;;;;4.80;1.42;;;;;;;-5.63;74.34;97398.53;5111938;28;20491;-65
2024/02/03 02:11:54;;;;;;;5.43;1.33;;;;;;;-5.68;74.32;97397.47;5112247;28;20131;-65
2024/02/03 02:14:22;;;;;;;2.92;1.63;;;;;;;-5.72;74.84;97403.00;5110927;28;20413;-66
2024/02/03 02:16:49;;;;;;;2.42;1.20;;;;;;;-5.74;75.32;97404.16;5111959;28;20047;-64
2024/02/03 02:19:18;;;;;;;2.38;1.35;;;;;;;-5.74;75.08;97404.97;5111646;28;20052;-65
2024/02/03 02:21:43;;;;;;;5.07;1.50;;;;;;;-5.77;74.81;97402.75;5110771;28;20054;-65
2024/02/03 02:24:10;;;;;;;1.95;1.50;;;;;;;-5.77;75.58;97396.78;5110813;28;20039;-64
2024/02/03 02:26:36;;;;;;;6.40;1.30;;;;;;;-5.74;75.39;97389.47;5112011;28;20152;-65
2024/02/03 02:29:02;;;;;;;3.60;1.50;;;;;;;-5.78;75.38;97387.47;5111558;28;20535;-64
2024/02/03 02:31:27;;;;;;;4.78;1.75;;;;;;;-5.82;75.21;97393.97;5112126;28;20414;-64
2024/02/03 02:33:53;;;;;;;6.72;1.35;;;;;;;-5.81;75.75;97395.56;5110498;28;20046;-66
2024/02/03 02:36:19;;;;;;;3.95;1.38;;;;;;;-5.85;75.54;97400.31;5111868;28;20130;-65
2024/02/03 02:38:45;;;;;;;4.32;1.38;;;;;;;-5.91;75.68;97389.88;5111913;28;20478;-65
2024/02/03 02:41:10;;;;;;;3.60;1.98;;;;;;;-5.90;75.87;97397.47;5111905;28;20123;-64
2024/02/03 02:43:36;;;;;;;2.65;1.20;;;;;;;-5.98;75.73;97400.16;5110601;28;20062;-64
2024/02/03 02:46:02;;;;;;;2.25;1.65;;;;;;;-5.99;76.07;97394.22;5060099;28;20405;-65
2024/02/03 02:48:28;;;;;;;4.50;1.40;;;;;;;-6.02;76.29;97386.03;5110521;28;20623;-64
2024/02/03 02:50:53;;;;;;;2.95;1.65;;;;;;;-6.07;76.56;97380.63;5111576;28;20457;-65
2024/02/03 02:53:19;;;;;;;6.78;2.40;;;;;;;-6.05;76.56;97383.81;5110289;28;20035;-64
2024/02/03 02:55:45;;;;;;;5.75;1.58;;;;;;;-6.08;76.30;97384.97;5110312;28;20067;-65
2024/02/03 02:58:11;;;;;;;4.20;1.90;;;;;;;-6.08;76.51;97374.66;5111263;28;20047;-65
2024/02/03 03:00:36;;;;;;;2.88;1.38;;;;;;;-6.14;76.78;97369.44;5111688;28;20520;-65
2024/02/03 03:03:03;;;;;;;4.95;1.70;;;;;;;-6.13;76.73;97371.03;5110078;28;20047;-65
2024/02/03 03:05:28;;;;;;;5.40;1.50;;;;;;;-6.17;76.66;97381.69;5110230;28;20043;-64
2024/02/03 03:07:54;;;;;;;7.22;2.08;;;;;;;-6.16;76.51;97369.59;5110323;28;20043;-65
2024/02/03 03:10:20;;;;;;;3.08;1.65;;;;;;;-6.17;76.68;97378.31;5111963;28;20046;-65
2024/02/03 03:12:46;;;;;;;5.28;1.40;;;;;;;-6.21;76.62;97377.88;5111444;28;20497;-65
2024/02/03 03:15:11;;;;;;;4.30;1.75;;;;;;;-6.26;76.68;97377.63;5111290;28;20040;-65
2024/02/03 03:17:37;;;;;;;3.08;1.58;;;;;;;-6.25;76.86;97375.84;5110929;28;20058;-65
2024/02/03 03:20:04;;;;;;;7.57;1.90;;;;;;;-6.27;77.21;97372.63;5111568;28;20042;-65
2024/02/03 03:22:30;;;;;;;5.55;1.85;;;;;;;-6.23;77.75;97371.31;5111579;28;20553;-65
2024/02/03 03:24:55;;;;;;;4.47;1.45;;;;;;;-6.24;77.29;97372.28;5113566;28;20039;-66
2024/02/03 03:27:21;;;;;;;4.60;1.35;;;;;;;-6.24;77.28;97364.53;5113596;28;20108;-64
2024/02/03 03:29:47;;;;;;;5.65;1.60;;;;;;;-6.28;77.67;97358.16;5114962;28;20512;-65
2024/02/03 03:32:13;;;;;;;4.70;1.40;;;;;;;-6.28;77.39;97360.72;5096479;28;20444;-66
2024/02/03 03:34:40;;;;;;;4.20;1.73;;;;;;;-6.27;77.46;97363.13;5113943;28;20413;-65
2024/02/03 03:37:07;;;;;;;1.90;1.70;;;;;;;-6.27;77.50;97349.44;5114969;28;20104;-64
2024/02/03 03:39:32;;;;;;;3.22;1.73;;;;;;;-6.30;77.28;97344.63;5114731;28;20104;-65
2024/02/03 03:41:58;;;;;;;5.25;1.90;;;;;;;-6.37;77.63;97352.28;5096431;28;20489;-65
2024/02/03 03:44:24;;;;;;;5.97;1.55;;;;;;;-6.41;77.38;97346.72;5114866;28;20039;-65
2024/02/03 03:46:49;;;;;;;6.70;1.95;;;;;;;-6.45;77.97;97339.50;5113300;28;20405;-64
2024/02/03 03:49:15;;;;;;;3.13;1.40;;;;;;;-6.44;78.24;97347.06;5096264;28;20509;-65
2024/02/03 03:51:41;;;;;;;3.65;1.75;;;;;;;-6.48;77.90;97337.28;5113255;28;20040;-65
2024/02/03 03:54:07;;;;;;;9.68;2.03;;;;;;;-6.48;78.08;97340.66;5113294;28;20036;-64
2024/02/03 03:56:32;;;;;;;10.45;2.58;;;;;;;-6.50;78.27;97341.81;5114372;28;20043;-66
2024/02/03 03:58:59;;;;;;;2.72;1.98;;;;;;;-6.51;78.56;97343.59;5114378;28;20042;-65
2024/02/03 04:01:25;;;;;;;7.35;1.90;;;;;;;-6.52;78.18;97344.56;5114291;28;20040;-65
2024/02/03 04:03:50;;;;;;;3.78;2.10;;;;;;;-6.47;78.53;97344.03;5096105;28;20412;-65
2024/02/03 04:06:16;;;;;;;6.72;2.13;;;;;;;-6.52;77.98;97343.78;5113201;28;20040;-64
2024/02/03 04:08:42;;;;;;;7.47;1.88;;;;;;;-6.49;78.33;97349.38;5112837;28;20039;-65
2024/02/03 04:11:08;;;;;;;4.50;1.95;;;;;;;-6.52;78.68;97338.63;5112843;28;20040;-65
2024/02/03 04:13:34;;;;;;;5.70;2.08;;;;;;;-6.52;78.51;97347.16;5113936;28;20032;-65
2024/02/03 04:15:59;;;;;;;4.07;2.00;;;;;;;-6.51;79.19;97332.47;5112987;28;20035;-65
2024/02/03 04:18:25;;;;;;;3.67;2.05;;;;;;;-6.56;79.41;97332.22;5113509;28;20112;-66
2024/02/03 04:20:51;;;;;;;5.45;1.92;;;;;;;-6.60;78.92;97329.19;5114067;28;20035;-65
2024/02/03 04:23:17;;;;;;;5.43;1.90;;;;;;;-6.61;79.01;97329.41;5113924;28;20036;-64
2024/02/03 04:25:43;;;;;;;2.58;1.77;;;;;;;-6.60;79.58;97328.41;5113939;28;20050;-66
2024/02/03 04:28:08;;;;;;;6.28;1.60;;;;;;;-6.65;79.34;97319.44;5113638;28;20056;-65
2024/02/03 04:30:34;;;;;;;4.60;1.92;;;;;;;-6.66;79.21;97312.66;5113737;28;20043;-65
2024/02/03 04:33:00;;;;;;;5.30;1.73;;;;;;;-6.71;79.63;97309.81;5114084;28;20043;-65
2024/02/03 04:35:26;;;;;;;9.23;2.58;;;;;;;-6.74;79.81;97311.97;5113654;28;20042;-64
2024/02/03 04:37:52;;;;;;;3.15;1.48;;;;;;;-6.73;80.22;97314.38;5113818;28;20047;-64
2024/02/03 04:40:18;;;;;;;5.30;2.25;;;;;;;-6.58;80.38;97322.09;5113790;28;20073;-66
2024/02/03 04:42:43;;;;;;;3.17;1.60;;;;;;;-6.45;79.52;97327.41;5113864;28;20044;-64
2024/02/03 04:45:09;;;;;;;3.95;1.95;;;;;;;-6.31;79.31;97325.78;5113449;28;20042;-66
2024/02/03 04:47:35;;;;;;;3.30;1.90;;;;;;;-6.11;78.49;97325.22;5112205;28;20135;-64
2024/02/03 04:50:01;;;;;;;5.40;1.92;;;;;;;-5.97;78.48;97326.94;5095075;28;20067;-65
2024/02/03 04:52:28;;;;;;;4.72;2.15;;;;;;;-5.85;77.41;97322.06;5113536;28;20039;-65
2024/02/03 04:54:54;;;;;;;3.83;1.90;;;;;;;-5.76;77.40;97329.53;5112299;28;20459;-65
2024/02/03 04:57:20;;;;;;;4.32;2.22;;;;;;;-5.67;77.54;97332.78;5111798;28;20051;-64
2024/02/03 04:59:45;;;;;;;6.30;2.22;;;;;;;-5.66;77.30;97326.63;5111951;28;20604;-64
2024/02/03 05:02:11;;;;;;;7.30;2.63;;;;;;;-5.55;76.74;97330.50;5111730;28;20047;-65
2024/02/03 05:04:37;;;;;;;8.40;2.75;;;;;;;-5.51;77.09;97327.34;5113092;28;20500;-65
2024/02/03 05:07:03;;;;;;;6.50;2.53;;;;;;;-5.51;77.45;97318.81;5094772;28;20044;-64
2024/02/03 05:09:29;;;;;;;7.78;2.40;;;;;;;-5.50;77.11;97325.56;5111665;28;20043;-65
2024/02/03 05:11:54;;;;;;;6.68;2.75;;;;;;;-5.39;77.90;97324.28;5111541;28;20043;-65
2024/02/03 05:14:20;;;;;;;7.38;2.58;;;;;;;-5.39;77.66;97330.25;5113228;28;20334;-64
2024/02/03 05:16:46;;;;;;;4.72;2.53;;;;;;;-5.37;77.68;97328.28;5094454;28;20055;-65
2024/02/03 05:19:12;;;;;;;9.55;3.00;;;;;;;-5.41;77.37;97327.06;5090879;28;20091;-65
2024/02/03 05:21:38;;;;;;;11.07;2.95;;;;;;;-5.31;78.25;97330.13;5092301;28;20055;-65
2024/02/03 05:24:04;;;;;;;5.97;3.13;;;;;;;-5.32;78.32;97325.94;5091045;28;20039;-65
2024/02/03 05:26:30;;;;;;;6.25;3.10;;;;;;;-5.20;77.87;97317.69;5092181;28;20076;-65
2024/02/03 05:28:55;;;;;;;3.85;2.50;;;;;;;-5.23;77.62;97320.66;5091030;28;20109;-65
2024/02/03 05:31:22;;;;;;;9.52;2.13;;;;;;;-5.18;77.91;97326.81;5092209;28;20059;-64
2024/02/03 05:33:47;;;;;;;3.80;2.40;;;;;;;-5.40;77.42;97289.13;5092151;28;20043;-65
2024/02/03 05:36:13;;;;;;;4.78;2.70;;;;;;;-5.16;78.04;97316.31;5092111;28;20048;-64
2024/02/03 05:38:39;;;;;;;5.22;2.30;;;;;;;-5.17;78.29;97325.84;5057137;28;20085;-65
2024/02/03 05:41:08;;;;;;;7.57;2.97;;;;;;;-5.13;78.06;97329.66;5092147;28;20040;-65
2024/02/03 05:43:33;;;;;;;3.97;2.80;;;;;;;-5.12;77.77;97328.66;5091928;28;20040;-65
2024/02/03 05:45:59;;;;;;;4.72;2.83;;;;;;;-4.99;78.13;97329.75;5090833;28;20048;-66
2024/02/03 05:48:25;;;;;;;6.13;3.00;;;;;;;-4.94;78.14;97325.63;5090237;28;20052;-65
2024/02/03 05:50:51;;;;;;;6.22;2.58;;;;;;;-4.88;77.67;97321.44;5090746;28;20036;-66
2024/02/03 05:53:17;;;;;;;4.55;2.28;;;;;;;-4.90;77.50;97313.09;5090632;28;20042;-66
2024/02/03 05:55:43;;;;;;;7.63;2.40;;;;;;;-4.84;77.25;97325.28;5092804;28;20036;-66
2024/02/03 05:58:08;;;;;;;6.88;2.60;;;;;;;-4.82;77.67;97323.31;5092878;28;20430;-65
2024/02/03 06:00:34;;;;;;;5.40;2.53;;;;;;;-4.76;77.56;97322.53;5074073;28;20080;-65
2024/02/03 06:03:01;;;;;;;8.57;2.78;;;;;;;-4.71;78.00;97309.03;5091447;28;20071;-64
2024/02/03 06:05:27;;;;;;;3.65;2.45;;;;;;;-4.69;77.01;97309.66;5073768;28;20097;-65
2024/02/03 06:07:53;;;;;;;3.88;2.08;;;;;;;-4.62;77.46;97307.88;5090521;28;20512;-65
2024/02/03 06:10:18;;;;;;;4.88;2.25;;;;;;;-4.60;77.49;97313.66;5091622;28;20071;-63
2024/02/03 06:12:44;;;;;;;5.72;3.05;;;;;;;-4.59;77.41;97310.91;5091899;28;20108;-64
2024/02/03 06:15:10;;;;;;;4.47;2.90;;;;;;;-4.49;77.60;97304.56;5073636;28;20108;-65
2024/02/03 06:17:35;;;;;;;5.93;2.47;;;;;;;-4.48;77.11;97303.56;5094043;28;20040;-65
2024/02/03 06:20:01;;;;;;;7.05;3.20;;;;;;;-4.43;77.29;97304.59;5111739;28;20120;-66
2024/02/03 06:22:29;;;;;;;6.20;2.63;;;;;;;-4.35;77.15;97306.22;5111917;28;20078;-65
2024/02/03 06:24:55;;;;;;;6.20;3.00;;;;;;;-4.34;76.56;97306.03;5111809;28;20496;-65
2024/02/03 06:27:21;;;;;;;4.60;2.45;;;;;;;-4.20;77.21;97304.28;5111645;28;20504;-66
2024/02/03 06:29:46;;;;;;;5.78;3.00;;;;;;;-4.07;75.82;97300.13;5111738;28;20400;-65
2024/02/03 06:32:12;;;;;;;6.05;2.50;;;;;;;-4.19;76.17;97298.13;5111960;28;20077;-65
2024/02/03 06:34:38;;;;;;;5.05;2.35;;;;;;;-4.14;76.17;97306.09;5111974;28;20043;-64
2024/02/03 06:37:04;;;;;;;7.00;2.28;;;;;;;-4.00;76.54;97296.59;5110371;28;20504;-65
2024/02/03 06:39:29;;;;;;;4.50;2.50;;;;;;;-3.94;75.48;97305.34;5111551;28;20047;-65
2024/02/03 06:41:55;;;;;;;4.60;2.63;;;;;;;-3.91;75.48;97303.19;5110375;28;20050;-65
2024/02/03 06:44:21;;;;;;;4.80;2.70;;;;;;;-3.78;75.75;97299.81;5111531;28;20043;-66
2024/02/03 06:46:46;;;;;;;6.28;2.72;;;;;;;-3.72;74.95;97296.41;5110029;28;20353;-66
2024/02/03 06:49:12;;;;;;;5.28;2.75;;;;;;;-3.61;74.86;97294.25;5110256;28;20043;-65
2024/02/03 06:51:38;;;;;;;8.20;2.78;;;;;;;-3.48;75.23;97286.47;5111427;28;20047;-64
2024/02/03 06:54:05;;;;;;;4.78;2.80;;;;;;;-3.40;74.59;97285.50;5111532;28;20044;-65
2024/02/03 06:56:30;;;;;;;5.70;2.00;;;;;;;-3.40;73.89;97285.50;5110077;28;20047;-65
2024/02/03 06:58:56;;;;;;;4.70;2.95;;;;;;;-3.25;74.32;97289.47;5112196;28;20036;-65
2024/02/03 07:01:22;;;;;;;4.40;2.58;;;;;;;-3.12;73.47;97283.47;5115409;28;20536;-65
2024/02/03 07:03:48;;;;;;;3.90;2.28;;;;;;;-3.14;72.86;97287.28;5115524;28;20046;-65
2024/02/03 07:06:14;;;;;;;5.50;2.42;;;;;;;-3.11;73.16;97279.91;5115409;28;20067;-66
2024/02/03 07:08:39;;;;;;;7.70;2.63;;;;;;;-3.10;72.49;97281.47;5113962;28;20050;-65
2024/02/03 07:11:06;;;;;;;5.68;2.00;;;;;;;-2.97;73.23;97278.88;5113806;28;20039;-66
2024/02/03 07:13:31;;;;;;;4.90;2.28;;;;;;;-2.87;72.75;97272.47;5114994;28;20040;-66
2024/02/03 07:15:57;;;;;;;3.83;2.25;;;;;;;-2.83;72.31;97276.25;5113707;28;20036;-65
2024/02/03 07:18:23;;;;;;;6.63;2.35;;;;;;;-2.72;71.96;97274.81;5114975;28;20043;-65
2024/02/03 07:20:49;;;;;;;3.45;2.03;;;;;;;-2.60;72.48;97268.00;5115019;28;20039;-65
2024/02/03 07:23:14;;;;;;;9.18;2.50;;;;;;;-2.44;72.28;97267.53;5114694;28;20482;-66
2024/02/03 07:25:40;;;;;;;7.88;2.50;;;;;;;-2.25;71.38;97255.47;5114667;27;20515;-66
2024/02/03 07:28:06;;;;;;;4.10;2.20;;;;;;;-2.11;70.48;97256.22;5096257;28;20061;-66
2024/02/03 07:30:31;;;;;;;5.53;2.22;;;;;;;-2.08;70.16;97248.78;5114724;27;20075;-65
2024/02/03 07:32:57;;;;;;;3.70;2.10;;;;;;;-2.03;70.00;97252.56;5096651;28;20073;-65
2024/02/03 07:35:24;;;;;;;3.53;2.33;;;;;;;-2.08;69.90;97251.38;5114946;28;20092;-65
2024/02/03 07:37:50;;;;;;;5.03;2.20;;;;;;;-2.11;69.91;97251.81;5115049;28;20427;-65
2024/02/03 07:40:16;;;;;;;4.75;2.42;;;;;;;-2.10;70.09;97250.00;5113515;28;20047;-66
2024/02/03 07:42:41;;;;;;;4.82;3.08;;;;;;;-2.08;69.78;97253.19;5115034;28;20078;-65
2024/02/03 07:45:07;;;;;;;4.22;2.10;;;;;;;-2.09;69.28;97251.59;5114952;28;20047;-66
2024/02/03 07:47:33;;;;;;;5.63;2.33;;;;;;;-2.01;69.27;97251.34;5114820;28;20090;-66
2024/02/03 07:49:59;;;;;;;2.78;2.03;;;;;;;-1.91;69.28;97256.06;5114756;28;20044;-64
2024/02/03 07:52:25;;;;;;;3.85;2.58;;;;;;;-1.78;69.22;97244.81;5114695;28;20058;-65
2024/02/03 07:54:51;;;;;;;5.75;2.15;;;;;;;-1.72;68.16;97238.78;5114660;28;20032;-67
2024/02/03 07:57:16;;;;;;;4.30;2.42;;;;;;;-1.67;67.87;97237.13;5114537;28;20066;-65
2024/02/03 07:59:42;;;;;;;4.28;2.08;;;;;;;-1.63;68.13;97240.09;5113299;28;20404;-65
2024/02/03 08:02:08;;;;;;;5.03;3.53;;;;;;;-1.69;67.06;97238.34;5114475;28;20043;-65
2024/02/03 08:04:34;;;;;;;4.30;2.00;;;;;;;-1.62;67.73;97239.91;5114063;28;20117;-65
2024/02/03 08:06:59;;;;;;;2.75;2.00;;;;;;;-1.37;67.04;97237.28;5114353;28;20142;-66
2024/02/03 08:09:25;;;;;;;3.80;2.20;;;;;;;-1.20;65.83;97236.75;5114044;28;20036;-66
2024/02/03 08:11:51;;;;;;;4.75;1.77;;;;;;;-1.20;65.27;97234.94;5113907;28;20047;-67
2024/02/03 08:14:17;;;;;;;4.97;1.80;;;;;;;-1.19;65.34;97238.31;5112870;28;20074;-64
2024/02/03 08:16:42;;;;;;;2.60;1.83;;;;;;;-1.06;65.25;97237.38;5114013;28;20051;-66
2024/02/03 08:19:08;;;;;;;4.00;2.28;;;;;;;-0.92;64.18;97231.03;5113731;28;20036;-66
2024/02/03 08:21:36;;;;;;;5.82;1.85;;;;;;;-0.87;64.36;97233.81;5112299;28;20516;-66
2024/02/03 08:24:02;;;;;;;5.45;2.10;;;;;;;-0.83;64.14;97214.13;5114157;27;20035;-65
2024/02/03 08:26:28;;;;;;;3.42;1.60;;;;;;;-0.77;64.13;97226.28;5113921;28;20428;-65
2024/02/03 08:28:54;;;;;;;4.90;1.90;;;;;;;-0.96;63.54;97215.09;5113627;28;20047;-66
2024/02/03 08:31:20;;;;;;;3.22;1.80;;;;;;;-0.97;63.90;97218.72;5113502;27;20070;-66
2024/02/03 08:33:45;;;;;;;2.30;1.80;;;;;;;-0.90;63.87;97221.22;5113178;28;20078;-65
2024/02/03 08:36:11;;;;;;;4.25;1.73;;;;;;;-0.92;63.28;97228.44;5113223;28;20485;-65
2024/02/03 08:38:37;;;;;;;7.82;2.22;;;;;;;-0.93;63.13;97219.84;5111904;28;20051;-65
2024/02/03 08:41:03;;;;;;;3.95;1.52;;;;;;;-0.89;63.45;97217.59;5111767;28;20134;-65
2024/02/03 08:43:29;;;;;;;4.82;2.08;;;;;;;-0.86;62.88;97213.78;5111568;28;20040;-65
2024/02/03 08:45:55;;;;;;;4.10;1.70;;;;;;;-0.84;63.15;97212.56;5111851;28;20085;-65
2024/02/03 08:48:21;;;;;;;3.55;1.95;;;;;;;-0.76;63.43;97207.06;5111709;28;20044;-66
2024/02/03 08:50:47;;;;;;;3.55;1.73;;;;;;;-0.66;63.31;97205.75;5113162;28;20039;-66
2024/02/03 08:53:12;;;;;;;5.28;2.13;;;;;;;-0.48;63.30;97193.50;5112758;28;20146;-64
2024/02/03 08:55:38;;;;;;;4.78;2.58;;;;;;;-0.39;61.71;97188.00;5113167;28;20046;-65
2024/02/03 08:58:04;;;;;;;3.05;1.88;;;;;;;-0.21;61.74;97187.94;5113184;28;20105;-64
2024/02/03 09:00:30;;;;;;;4.35;1.92;;;;;;;-0.06;61.62;97192.72;5112888;28;20046;-65
2024/02/03 09:02:56;;;;;;;6.45;2.20;;;;;;;0.07;61.45;97179.53;5113059;28;20048;-65
2024/02/03 09:05:22;;;;;;;3.78;1.90;;;;;;;0.20;60.64;97171.47;5111344;28;20112;-67
2024/02/03 09:07:47;;;;;;;5.07;2.80;;;;;;;0.24;61.09;97169.25;5112987;28;20556;-66
2024/02/03 09:10:13;;;;;;;5.22;2.33;;;;;;;0.22;60.80;97159.03;5112598;28;20599;-66
2024/02/03 09:12:39;;;;;;;7.15;2.08;;;;;;;0.27;60.97;97157.56;5094429;28;20047;-65
2024/02/03 09:15:05;;;;;;;5.00;2.28;;;;;;;0.20;61.39;97153.25;5111227;28;20047;-65
2024/02/03 09:17:31;;;;;;;2.72;2.30;;;;;;;0.23;60.29;97149.41;5112818;28;20040;-65
2024/02/03 09:19:57;;;;;;;6.63;2.47;;;;;;;0.32;60.41;97142.81;5112771;28;20050;-66
2024/02/03 09:22:22;;;;;;;6.43;2.47;;;;;;;0.45;60.51;97152.25;5110592;28;20393;-65
2024/02/03 09:24:48;;;;;;;3.20;2.30;;;;;;;0.54;61.23;97140.47;5112927;28;20511;-66
2024/02/03 09:27:14;;;;;;;4.00;2.28;;;;;;;0.33;59.91;97135.81;5112530;28;20424;-65
2024/02/03 09:29:40;;;;;;;5.10;2.47;;;;;;;0.49;61.04;97137.72;5094223;28;20480;-66
2024/02/03 09:32:07;;;;;;;4.13;2.10;;;;;;;0.51;60.55;97096.59;5111325;28;20044;-66
2024/02/03 09:34:33;;;;;;;3.50;2.15;;;;;;;0.83;59.24;97136.13;5112724;28;20039;-66
2024/02/03 09:36:58;;;;;;;4.57;2.45;;;;;;;0.82;60.14;97129.28;5112581;28;20454;-65
2024/02/03 09:39:24;;;;;;;7.10;2.38;;;;;;;0.98;59.25;97119.19;5111022;28;20089;-66
2024/02/03 09:41:50;;;;;;;4.10;2.10;;;;;;;0.95;59.43;97117.84;5112589;28;20082;-65
2024/02/03 09:44:16;;;;;;;4.45;2.40;;;;;;;0.85;59.29;97115.00;5111082;28;20036;-65
2024/02/03 09:46:41;;;;;;;7.47;2.20;;;;;;;0.81;59.22;97104.25;5111096;28;20044;-65
2024/02/03 09:49:07;;;;;;;6.53;2.83;;;;;;;0.73;60.26;97101.19;5111149;28;20043;-66
2024/02/03 09:51:33;;;;;;;4.57;2.80;;;;;;;0.62;60.30;97095.78;5112156;28;20058;-66
2024/02/03 09:53:59;;;;;;;7.75;3.28;;;;;;;0.65;60.13;97091.94;5112449;28;20082;-66
2024/02/03 09:56:26;;;;;;;4.78;2.88;;;;;;;0.71;59.70;97091.03;5110785;28;20046;-66
2024/02/03 09:58:52;;;;;;;6.25;2.78;;;;;;;0.66;59.08;97075.25;5110784;28;20046;-66
2024/02/03 10:01:17;;;;;;;4.25;2.80;;;;;;;0.51;60.10;97075.75;5110922;28;20396;-65
2024/02/03 10:03:46;;;;;;;6.93;2.75;;;;;;;0.60;60.28;97070.97;5111946;28;20035;-66
2024/02/03 10:06:13;;;;;;;3.72;2.75;;;;;;;0.67;60.76;97072.41;5112294;28;20044;-65
2024/02/03 10:08:39;;;;;;;4.90;3.13;;;;;;;0.81;60.90;97066.94;5112121;28;20465;-65
2024/02/03 10:11:05;;;;;;;7.30;3.30;;;;;;;0.94;60.68;97069.28;5110915;28;20050;-65
2024/02/03 10:13:32;;;;;;;5.35;2.78;;;;;;;0.96;59.70;97053.41;5111755;28;20409;-66
2024/02/03 10:16:02;;;;;;;5.05;3.17;;;;;;;1.00;59.39;97051.91;5111938;28;20036;-65
2024/02/03 10:18:31;;;;;;;5.35;3.05;;;;;;;1.07;60.24;97055.19;5111603;28;20043;-66
2024/02/03 10:20:59;;;;;;;7.13;3.20;;;;;;;0.92;58.89;97047.06;5111758;28;20097;-65
2024/02/03 10:23:25;;;;;;;5.97;3.20;;;;;;;0.88;58.67;97042.31;5110441;28;20625;-67
2024/02/03 10:25:56;;;;;;;4.65;3.10;;;;;;;0.96;59.70;97035.94;5093853;28;20054;-65
2024/02/03 10:28:22;;;;;;;4.82;3.10;;;;;;;1.05;59.19;97031.13;5110383;28;20063;-66
2024/02/03 10:30:48;;;;;;;6.22;2.70;;;;;;;1.08;59.23;97035.88;5110404;28;20031;-65
2024/02/03 10:33:13;;;;;;;6.30;3.47;;;;;;;0.89;59.09;97022.25;5112604;28;20465;-66
2024/02/03 10:35:39;;;;;;;6.57;4.07;;;;;;;0.83;59.85;97023.97;5116007;28;20047;-64
2024/02/03 10:38:05;;;;;;;8.95;3.53;;;;;;;0.77;60.06;97017.06;5115911;28;20055;-65
2024/02/03 10:40:32;;;;;;;6.88;4.00;;;;;;;0.65;59.67;97006.69;5115883;28;20050;-66
2024/02/03 10:42:58;;;;;;;7.53;3.42;;;;;;;0.63;60.11;97007.94;5116168;28;20048;-65
2024/02/03 10:45:28;;;;;;;7.70;3.08;;;;;;;0.51;60.56;97002.75;5115866;28;20069;-65
2024/02/03 10:47:57;;;;;;;6.75;3.10;;;;;;;0.46;59.99;97000.03;5115888;28;20055;-66
2024/02/03 10:50:50;;;;;;;5.95;3.60;;;;;;;0.48;61.29;96998.00;5114405;28;20059;-66
2024/02/03 10:53:20;;;;;;;8.73;3.08;;;;;;;0.37;60.29;96996.22;5114564;28;20043;-65
2024/02/03 10:55:54;;;;;;;5.82;3.35;;;;;;;0.50;60.78;96995.16;5097335;28;20118;-66
2024/02/03 10:58:25;;;;;;;8.30;4.75;;;;;;;0.58;60.69;96992.19;5097156;28;20074;-65
2024/02/03 11:00:56;;;;;;;9.10;3.70;;;;;;;0.61;60.35;96992.50;5115817;28;20046;-66
2024/02/03 11:03:22;;;;;;;11.13;4.63;;;;;;;0.55;59.98;96985.63;5114102;28;20520;-66
2024/02/03 11:05:54;;;;;;;7.80;3.92;;;;;;;0.47;60.92;96959.91;5114096;28;20044;-65
2024/02/03 11:08:21;;;;;;;9.20;3.90;;;;;;;0.68;60.88;96990.56;5113886;28;20588;-65
2024/02/03 11:10:50;;;;;;;4.68;3.45;;;;;;;0.74;60.64;96985.47;5115540;28;20518;-66
2024/02/03 11:13:23;;;;;;;5.87;3.47;;;;;;;0.85;60.43;96988.03;5115165;28;20093;-66
2024/02/03 11:15:58;;;;;;;9.60;4.13;;;;;;;0.96;59.52;96977.75;5115323;28;20293;-65
2024/02/03 11:18:24;;;;;;;6.30;3.47;;;;;;;0.99;60.11;96975.47;5114794;28;20138;-65
2024/02/03 11:20:50;;;;;;;6.68;3.42;;;;;;;1.11;60.44;96970.19;5115289;28;20043;-65
2024/02/03 11:23:16;;;;;;;7.30;4.30;;;;;;;1.02;60.42;96964.56;5115154;28;20123;-65
2024/02/03 11:25:46;;;;;;;9.82;4.55;;;;;;;0.97;59.53;96963.69;5114788;28;20481;-66
2024/02/03 11:28:12;;;;;;;5.72;3.70;;;;;;;0.93;60.07;96955.53;5114777;28;20051;-65